Terminal Aerodrome Forecast
Issued by NWS Grand Junction, CO

Home | Current Version | Previous Version | Text Only | Print | Product List | Glossary On
Versions: 1 2 3 4 5 6 7 8 9 10 11 12 13 14 15 16
000
FTUS45 KGJT 281732
TAFGJT
TAF
KGJT 281732Z 2818/2918 13007KT P6SM VCSH SCT070 BKN080
      TEMPO 2818/2820 -SHRA SCT045 BKN070
     FM282000 30006KT P6SM VCTS SCT090CB BKN120
     FM290100 07006KT P6SM SCT100 SCT150
     FM290600 11006KT P6SM SCT150=

USA.gov is the U.S. government's official web portal to all federal, state and local government web resources and services.